Time;durP1;ratioP1;P1;durP2;ratioP2;P2;SDS_P1;SDS_P2;PMS_P1;PMS_P2;Temp;Humidity;BMP_temperature;BMP_pressure;BME280_temperature;BME280_humidity;BME280_pressure;Samples;Min_cycle;Max_cycle;Signal;HPM_P1;HPM_P2
2023/12/29 00:02:10;;;;;;;2.10;1.90;;;8.00;99.90;;;;;;4919756;29;20179;-62
2023/12/29 00:04:35;;;;;;;1.57;1.30;;;8.10;99.90;;;;;;4908157;29;20266;-62
2023/12/29 00:07:01;;;;;;;4.30;1.87;;;8.20;99.90;;;;;;4914107;29;20199;-62
2023/12/29 00:09:27;;;;;;;1.60;1.40;;;8.20;99.90;;;;;;4914869;29;20195;-61
2023/12/29 00:11:54;;;;;;;2.23;2.03;;;8.10;99.90;;;;;;4922845;29;20432;-62
2023/12/29 00:14:20;;;;;;;1.80;1.70;;;8.20;99.90;;;;;;4914491;29;20688;-62
2023/12/29 00:16:46;;;;;;;2.70;1.80;;;8.20;99.90;;;;;;4910221;29;20550;-62
2023/12/29 00:19:12;;;;;;;1.93;1.47;;;8.20;99.90;;;;;;4909012;29;20469;-62
2023/12/29 00:21:37;;;;;;;2.63;2.07;;;8.20;99.90;;;;;;4912203;29;20692;-62
2023/12/29 00:24:04;;;;;;;2.70;1.97;;;8.20;99.90;;;;;;4916502;29;20418;-62
2023/12/29 00:26:30;;;;;;;2.30;1.97;;;8.30;99.90;;;;;;4913113;29;20243;-61
2023/12/29 00:28:55;;;;;;;2.97;1.80;;;8.30;99.90;;;;;;4914195;29;20451;-62
2023/12/29 00:31:21;;;;;;;2.80;2.03;;;8.30;99.90;;;;;;4913158;29;20178;-62
2023/12/29 00:33:47;;;;;;;2.73;2.10;;;8.30;99.90;;;;;;4915809;29;20206;-62
2023/12/29 00:36:16;;;;;;;2.40;2.03;;;8.30;99.90;;;;;;4915002;29;20201;-62
2023/12/29 00:38:42;;;;;;;2.80;2.00;;;8.20;99.90;;;;;;4908139;29;20189;-62
2023/12/29 00:41:08;;;;;;;1.80;1.43;;;8.30;99.90;;;;;;4915922;29;20433;-62
2023/12/29 00:43:35;;;;;;;2.37;1.40;;;8.20;99.90;;;;;;4916516;29;20209;-62
2023/12/29 00:46:04;;;;;;;2.80;2.00;;;8.20;99.90;;;;;;4910724;29;20426;-62
2023/12/29 00:48:33;;;;;;;2.37;1.63;;;8.30;99.90;;;;;;4915863;29;20442;-62
2023/12/29 00:51:02;;;;;;;4.40;1.67;;;8.30;99.90;;;;;;4906847;29;20476;-61
2023/12/29 00:53:29;;;;;;;2.77;2.57;;;8.30;99.90;;;;;;4916192;29;20482;-62
2023/12/29 00:55:54;;;;;;;2.87;2.03;;;8.30;99.90;;;;;;4914553;29;20419;-61
2023/12/29 00:58:20;;;;;;;3.27;1.80;;;8.30;99.90;;;;;;4912937;29;20514;-61
2023/12/29 01:00:46;;;;;;;2.30;1.40;;;8.30;99.90;;;;;;4906258;29;20185;-62
2023/12/29 01:03:11;;;;;;;2.23;1.70;;;8.30;99.90;;;;;;4909258;29;20181;-62
2023/12/29 01:05:37;;;;;;;3.73;1.60;;;8.20;99.90;;;;;;4913831;29;20214;-61
2023/12/29 01:08:02;;;;;;;1.73;1.63;;;8.20;99.90;;;;;;4914198;29;20175;-62
2023/12/29 01:10:28;;;;;;;2.40;1.53;;;8.30;99.90;;;;;;4914881;29;20242;-61
2023/12/29 01:12:54;;;;;;;1.87;1.53;;;8.30;99.90;;;;;;4919528;29;20288;-62
2023/12/29 01:15:19;;;;;;;3.50;1.50;;;8.20;99.90;;;;;;4913971;29;20175;-61
2023/12/29 01:17:45;;;;;;;2.30;1.30;;;8.30;99.90;;;;;;4906333;29;20231;-60
2023/12/29 01:20:10;;;;;;;2.77;1.50;;;8.30;99.90;;;;;;4903352;29;20641;-62
2023/12/29 01:22:36;;;;;;;4.77;2.47;;;8.30;99.90;;;;;;4912967;29;20510;-62
2023/12/29 01:25:02;;;;;;;6.20;1.90;;;8.30;99.90;;;;;;4906839;29;20677;-62
2023/12/29 01:27:29;;;;;;;2.40;1.60;;;8.30;99.90;;;;;;4910694;29;20266;-62
2023/12/29 01:29:54;;;;;;;1.87;1.40;;;8.30;99.90;;;;;;4911952;29;20573;-62
2023/12/29 01:32:21;;;;;;;1.77;1.63;;;8.30;99.90;;;;;;4905908;29;20426;-60
2023/12/29 01:34:46;;;;;;;4.47;1.67;;;8.40;99.90;;;;;;4906122;29;20206;-61
2023/12/29 01:37:12;;;;;;;1.80;1.47;;;8.30;99.90;;;;;;4915122;29;20798;-62
2023/12/29 01:39:39;;;;;;;1.30;1.20;;;8.40;99.90;;;;;;4914993;29;20201;-63
2023/12/29 01:42:05;;;;;;;1.87;1.67;;;8.30;99.90;;;;;;4914240;29;20174;-61
2023/12/29 01:44:31;;;;;;;3.17;1.80;;;8.30;99.90;;;;;;4915218;29;20989;-62
2023/12/29 01:47:00;;;;;;;2.80;1.47;;;8.30;99.90;;;;;;4918027;29;20174;-62
2023/12/29 01:49:27;;;;;;;2.10;1.90;;;8.30;99.90;;;;;;4917118;29;20434;-58
2023/12/29 01:51:59;;;;;;;6.87;1.90;;;8.30;99.90;;;;;;4919006;29;20432;-61
2023/12/29 01:54:27;;;;;;;2.13;1.50;;;8.40;99.90;;;;;;4919190;29;20492;-62
2023/12/29 01:56:56;;;;;;;1.83;1.67;;;8.30;99.90;;;;;;4918865;29;20423;-61
2023/12/29 01:59:23;;;;;;;1.90;1.70;;;8.30;99.90;;;;;;4917700;29;20482;-62
2023/12/29 02:01:49;;;;;;;2.43;1.37;;;8.30;99.90;;;;;;4918911;29;20909;-62
2023/12/29 02:04:17;;;;;;;1.83;1.60;;;8.30;99.90;;;;;;4919066;29;20422;-61
2023/12/29 02:06:43;;;;;;;1.73;1.33;;;8.30;99.90;;;;;;4914669;29;20186;-63
2023/12/29 02:09:09;;;;;;;2.10;1.67;;;8.30;99.90;;;;;;4916773;29;20516;-62
2023/12/29 02:11:34;;;;;;;2.30;1.60;;;8.30;99.90;;;;;;4917364;29;20182;-61
2023/12/29 02:14:01;;;;;;;3.80;1.70;;;8.20;99.90;;;;;;4918620;29;20473;-62
2023/12/29 02:17:03;;;;;;;1.97;1.77;;;8.30;99.90;;;;;;4921554;29;20211;-62
2023/12/29 02:19:46;;;;;;;1.70;1.60;;;8.30;99.90;;;;;;4918634;29;20451;-62
2023/12/29 02:22:12;;;;;;;4.03;1.63;;;8.30;99.90;;;;;;4914607;29;20406;-63
2023/12/29 02:24:39;;;;;;;1.73;1.40;;;8.30;99.90;;;;;;4916949;29;20528;-62
2023/12/29 02:27:37;;;;;;;3.30;1.40;;;8.30;99.90;;;;;;4904523;29;20422;-63
2023/12/29 02:30:09;;;;;;;2.20;2.00;;;8.30;99.90;;;;;;4910660;29;20448;-64
2023/12/29 02:32:38;;;;;;;4.57;1.77;;;8.30;99.90;;;;;;4920655;29;20860;-62
2023/12/29 02:35:07;;;;;;;1.93;1.60;;;8.30;99.90;;;;;;4918677;29;20430;-62
2023/12/29 02:37:35;;;;;;;2.07;1.83;;;8.30;99.90;;;;;;4926986;29;20426;-62
2023/12/29 02:40:01;;;;;;;1.80;1.50;;;8.20;99.90;;;;;;4916091;29;20444;-62
2023/12/29 02:42:27;;;;;;;2.30;1.47;;;8.20;99.90;;;;;;4917635;29;20968;-63
2023/12/29 02:44:52;;;;;;;2.17;1.63;;;8.30;99.90;;;;;;4923087;29;20202;-62
2023/12/29 02:47:19;;;;;;;1.50;1.40;;;8.30;99.90;;;;;;4924537;29;20178;-62
2023/12/29 02:49:44;;;;;;;4.97;2.13;;;8.30;99.90;;;;;;4918520;29;20213;-62
2023/12/29 02:52:10;;;;;;;3.20;1.70;;;8.40;99.90;;;;;;4913269;29;20934;-62
2023/12/29 02:54:36;;;;;;;1.60;1.50;;;8.50;99.90;;;;;;4925786;29;20567;-62
2023/12/29 02:57:01;;;;;;;1.73;1.57;;;8.50;99.90;;;;;;4910848;29;20184;-62
2023/12/29 02:59:27;;;;;;;2.27;1.67;;;8.50;99.90;;;;;;4911490;29;20594;-63
2023/12/29 03:01:52;;;;;;;1.70;1.60;;;8.50;99.90;;;;;;4913825;29;20223;-62
2023/12/29 03:04:18;;;;;;;1.80;1.47;;;8.50;99.90;;;;;;4915776;29;20190;-62
2023/12/29 03:06:44;;;;;;;4.20;1.87;;;8.50;99.90;;;;;;4917465;29;20189;-63
2023/12/29 03:09:10;;;;;;;2.70;1.87;;;8.50;99.90;;;;;;4916736;29;20579;-62
2023/12/29 03:11:36;;;;;;;3.57;1.50;;;8.50;99.90;;;;;;4912431;29;20427;-62
2023/12/29 03:14:01;;;;;;;1.40;1.30;;;8.50;99.90;;;;;;4906734;29;20243;-62
2023/12/29 03:16:27;;;;;;;1.33;1.20;;;8.50;99.90;;;;;;4909668;29;20204;-62
2023/12/29 03:18:52;;;;;;;2.40;1.73;;;8.50;99.90;;;;;;4909254;29;20295;-63
2023/12/29 03:21:18;;;;;;;3.17;1.50;;;8.60;99.90;;;;;;4913558;29;20179;-63
2023/12/29 03:23:44;;;;;;;4.40;1.60;;;8.50;99.90;;;;;;4914846;29;20187;-63
2023/12/29 03:26:09;;;;;;;1.83;1.73;;;8.50;99.90;;;;;;4921439;29;20182;-63
2023/12/29 03:28:35;;;;;;;2.97;1.50;;;8.40;99.90;;;;;;4908953;29;20210;-62
2023/12/29 03:31:00;;;;;;;1.50;1.37;;;8.50;99.90;;;;;;4910669;29;20224;-63
2023/12/29 03:33:26;;;;;;;1.50;1.40;;;8.50;99.90;;;;;;4912844;29;20694;-63
2023/12/29 03:35:51;;;;;;;1.30;1.20;;;8.40;99.90;;;;;;4909609;29;20178;-63
2023/12/29 03:38:17;;;;;;;1.77;1.40;;;8.50;99.90;;;;;;4919312;29;20268;-63
2023/12/29 03:40:43;;;;;;;1.43;1.30;;;8.50;99.90;;;;;;4917197;29;20201;-63
2023/12/29 03:43:08;;;;;;;1.23;1.13;;;8.50;99.90;;;;;;4917375;29;20608;-63
2023/12/29 03:45:34;;;;;;;2.30;1.77;;;8.60;99.90;;;;;;4917525;29;20217;-63
2023/12/29 03:48:00;;;;;;;1.60;1.33;;;8.50;99.90;;;;;;4918909;29;20187;-63
2023/12/29 03:50:25;;;;;;;2.33;1.33;;;8.60;99.90;;;;;;4916565;29;20226;-63
2023/12/29 03:52:51;;;;;;;4.40;1.57;;;8.60;99.90;;;;;;4911121;29;20231;-63
2023/12/29 03:55:16;;;;;;;2.90;1.40;;;8.60;99.90;;;;;;4921792;29;20177;-62
2023/12/29 03:57:43;;;;;;;3.90;1.33;;;8.60;99.90;;;;;;4920065;29;20206;-62
2023/12/29 04:00:12;;;;;;;1.87;1.20;;;8.70;99.90;;;;;;4916548;29;20206;-62
2023/12/29 04:02:38;;;;;;;4.40;1.60;;;8.70;99.90;;;;;;4913973;29;20533;-62
2023/12/29 04:05:05;;;;;;;2.40;1.40;;;8.70;99.90;;;;;;4901023;29;20538;-62
2023/12/29 04:07:31;;;;;;;1.80;1.50;;;8.70;99.90;;;;;;4915426;29;20198;-62
2023/12/29 04:09:56;;;;;;;1.77;1.47;;;8.80;99.90;;;;;;4925740;29;20430;-62
2023/12/29 04:12:22;;;;;;;1.30;1.20;;;8.80;99.90;;;;;;4917064;29;20189;-62
2023/12/29 04:14:47;;;;;;;2.07;1.87;;;8.80;99.90;;;;;;4917697;29;20231;-62
2023/12/29 04:17:14;;;;;;;1.17;1.10;;;8.80;99.90;;;;;;4914109;29;20554;-62
2023/12/29 04:19:41;;;;;;;1.40;1.30;;;8.80;99.90;;;;;;4915412;29;20227;-62
2023/12/29 04:22:07;;;;;;;2.40;1.40;;;8.80;99.90;;;;;;4908010;29;20430;-62
2023/12/29 04:24:33;;;;;;;2.70;1.60;;;8.80;99.90;;;;;;4921832;29;20426;-62
2023/12/29 04:26:58;;;;;;;1.30;1.00;;;8.80;99.90;;;;;;4916188;29;20837;-62
2023/12/29 04:29:24;;;;;;;1.83;1.13;;;8.80;99.90;;;;;;4914512;29;20880;-62
2023/12/29 04:31:50;;;;;;;2.27;1.60;;;8.80;99.90;;;;;;4906269;29;20271;-63
2023/12/29 04:34:15;;;;;;;1.60;1.50;;;8.80;99.90;;;;;;4916262;29;20272;-63
2023/12/29 04:36:41;;;;;;;1.60;1.10;;;8.80;99.90;;;;;;4916303;29;20191;-62
2023/12/29 04:39:09;;;;;;;1.20;0.90;;;8.70;99.90;;;;;;4916398;29;20207;-62
2023/12/29 04:41:35;;;;;;;2.13;1.40;;;8.80;99.90;;;;;;4903614;29;20194;-63
2023/12/29 04:44:00;;;;;;;2.80;1.20;;;8.70;99.90;;;;;;4910440;29;20431;-62
2023/12/29 04:46:26;;;;;;;1.30;1.20;;;8.70;99.90;;;;;;4914538;29;20440;-62
2023/12/29 04:48:51;;;;;;;1.50;1.13;;;8.70;99.90;;;;;;4912162;29;20702;-62
2023/12/29 04:51:17;;;;;;;1.40;1.30;;;8.70;99.90;;;;;;4917958;29;20186;-63
2023/12/29 04:53:43;;;;;;;2.50;1.20;;;8.70;99.90;;;;;;4915940;29;20624;-62
2023/12/29 04:56:09;;;;;;;2.00;1.40;;;8.70;99.90;;;;;;4911209;29;20175;-62
2023/12/29 04:58:34;;;;;;;4.17;1.13;;;8.70;99.90;;;;;;4913169;29;20182;-63
2023/12/29 05:01:00;;;;;;;2.43;1.50;;;8.60;99.90;;;;;;4909836;29;20417;-62
2023/12/29 05:03:25;;;;;;;1.30;1.20;;;8.60;99.90;;;;;;4917468;29;20184;-63
2023/12/29 05:05:51;;;;;;;1.30;1.10;;;8.60;99.90;;;;;;4931500;29;20599;-62
2023/12/29 05:08:16;;;;;;;3.20;1.17;;;8.60;99.90;;;;;;4910838;29;20445;-62
2023/12/29 05:10:42;;;;;;;1.63;1.07;;;8.70;99.90;;;;;;4915237;29;20254;-61
2023/12/29 05:13:08;;;;;;;2.33;1.17;;;8.70;99.90;;;;;;4916625;29;20234;-62
2023/12/29 05:15:33;;;;;;;2.13;1.23;;;8.70;99.90;;;;;;4912033;29;20213;-61
2023/12/29 05:17:59;;;;;;;1.43;1.00;;;8.70;99.90;;;;;;4908677;29;20203;-61
2023/12/29 05:20:24;;;;;;;2.33;1.00;;;8.70;99.90;;;;;;4910427;29;20204;-62
2023/12/29 05:22:50;;;;;;;1.40;1.30;;;8.70;99.90;;;;;;4912614;29;20240;-61
2023/12/29 05:25:16;;;;;;;1.53;1.20;;;8.70;99.90;;;;;;4904255;29;20242;-63
2023/12/29 05:27:41;;;;;;;0.90;0.80;;;8.70;99.90;;;;;;4915336;29;20178;-62
2023/12/29 05:30:07;;;;;;;3.57;1.10;;;8.70;99.90;;;;;;4911881;29;20282;-62
2023/12/29 05:32:33;;;;;;;1.10;1.00;;;8.70;99.90;;;;;;4904628;29;20214;-63
2023/12/29 05:34:58;;;;;;;1.70;0.93;;;8.80;99.90;;;;;;4917096;29;20478;-62
2023/12/29 05:37:24;;;;;;;1.53;1.00;;;8.80;99.90;;;;;;4904361;29;20187;-62
2023/12/29 05:39:50;;;;;;;1.57;1.00;;;8.90;99.90;;;;;;4907447;29;20190;-62
2023/12/29 05:42:15;;;;;;;1.27;1.00;;;9.00;99.90;;;;;;4915436;29;20206;-62
2023/12/29 05:44:41;;;;;;;1.73;1.20;;;9.00;99.90;;;;;;4921350;29;20175;-62
2023/12/29 05:47:07;;;;;;;1.77;1.17;;;9.00;99.90;;;;;;4912197;29;20649;-62
2023/12/29 05:49:37;;;;;;;1.77;1.10;;;9.10;99.90;;;;;;4906256;29;20212;-62
2023/12/29 05:52:03;;;;;;;0.90;0.90;;;9.00;99.90;;;;;;4907366;29;20270;-62
2023/12/29 05:54:29;;;;;;;1.23;1.07;;;9.10;99.90;;;;;;4915218;29;20470;-62
2023/12/29 05:56:55;;;;;;;3.27;1.00;;;9.00;99.90;;;;;;4914806;29;20425;-62
2023/12/29 05:59:20;;;;;;;3.27;1.30;;;9.00;99.90;;;;;;4915145;29;20192;-63
2023/12/29 06:01:46;;;;;;;1.30;1.00;;;9.00;99.90;;;;;;4907766;29;20175;-62
2023/12/29 06:04:11;;;;;;;1.40;1.30;;;9.00;99.90;;;;;;4911756;29;20183;-62
2023/12/29 06:06:37;;;;;;;1.27;1.17;;;9.00;99.90;;;;;;4911889;29;20547;-62
2023/12/29 06:09:03;;;;;;;1.10;1.00;;;9.10;99.90;;;;;;4921197;29;20215;-62
2023/12/29 06:11:28;;;;;;;1.07;1.00;;;9.10;99.90;;;;;;4902406;29;20270;-62
2023/12/29 06:13:54;;;;;;;2.07;1.17;;;9.10;99.90;;;;;;4908459;29;20658;-62
2023/12/29 06:16:20;;;;;;;1.63;1.10;;;9.10;99.90;;;;;;4914412;29;20181;-62
2023/12/29 06:18:47;;;;;;;1.00;0.90;;;9.10;99.90;;;;;;4910726;29;20934;-63
2023/12/29 06:21:12;;;;;;;1.20;1.00;;;9.20;99.90;;;;;;4912294;29;20419;-62
2023/12/29 06:23:38;;;;;;;1.43;1.00;;;9.20;99.90;;;;;;4909354;29;21109;-62
2023/12/29 06:26:04;;;;;;;1.80;1.00;;;9.20;99.90;;;;;;4912161;29;20188;-62
2023/12/29 06:28:29;;;;;;;1.40;1.30;;;9.20;99.90;;;;;;4914714;29;20195;-62
2023/12/29 06:30:55;;;;;;;2.73;1.30;;;9.30;99.90;;;;;;4911906;29;20711;-63
2023/12/29 06:33:21;;;;;;;4.10;1.33;;;9.30;99.90;;;;;;4917765;29;20207;-63
2023/12/29 06:35:48;;;;;;;2.20;1.10;;;9.20;99.90;;;;;;4912351;29;20188;-63
2023/12/29 06:38:14;;;;;;;2.60;1.00;;;9.20;99.90;;;;;;4907147;29;20838;-63
2023/12/29 06:40:39;;;;;;;2.10;0.80;;;9.30;99.90;;;;;;4918429;29;20440;-62
2023/12/29 06:43:05;;;;;;;3.30;1.10;;;9.30;99.90;;;;;;4911074;29;20426;-62
2023/12/29 06:45:31;;;;;;;1.20;1.00;;;9.30;99.90;;;;;;4933701;23;20236;-65
2023/12/29 06:47:57;;;;;;;1.20;1.10;;;9.30;99.90;;;;;;4910912;29;20198;-68
2023/12/29 06:50:22;;;;;;;2.23;1.33;;;9.30;99.90;;;;;;4909748;29;20274;-65
2023/12/29 06:52:48;;;;;;;1.67;1.07;;;9.40;99.90;;;;;;4915073;29;20634;-65
2023/12/29 06:55:13;;;;;;;3.03;1.30;;;9.40;99.90;;;;;;4907981;29;20192;-65
2023/12/29 06:57:39;;;;;;;2.13;1.50;;;9.40;99.90;;;;;;4908178;29;20564;-66
2023/12/29 07:00:06;;;;;;;3.30;1.10;;;9.40;99.90;;;;;;4902664;29;20188;-65
2023/12/29 07:02:32;;;;;;;1.90;1.10;;;9.40;99.90;;;;;;4902735;29;20188;-64
2023/12/29 07:04:57;;;;;;;1.10;1.00;;;9.40;99.90;;;;;;4902623;29;20996;-66
2023/12/29 07:07:23;;;;;;;1.97;1.20;;;9.40;99.90;;;;;;4901000;29;20188;-64
2023/12/29 07:09:49;;;;;;;1.17;1.07;;;9.40;99.90;;;;;;4909281;29;20557;-64
2023/12/29 07:12:15;;;;;;;2.87;1.27;;;9.40;99.90;;;;;;4908574;29;20479;-64
2023/12/29 07:14:41;;;;;;;2.43;1.20;;;9.40;99.90;;;;;;4903720;29;20268;-62
2023/12/29 07:17:07;;;;;;;4.43;2.10;;;9.50;99.90;;;;;;4902354;29;20420;-61
2023/12/29 07:19:38;;;;;;;2.00;1.03;;;9.60;99.90;;;;;;4900930;29;20427;-61
2023/12/29 07:22:08;;;;;;;4.40;1.40;;;9.60;99.90;;;;;;4906897;29;20194;-64
2023/12/29 07:24:35;;;;;;;1.13;1.03;;;9.60;99.90;;;;;;4906063;29;20450;-65
2023/12/29 07:27:01;;;;;;;3.83;1.53;;;9.60;99.90;;;;;;4914351;29;20435;-64
2023/12/29 07:29:26;;;;;;;1.00;0.90;;;9.70;99.90;;;;;;4900488;29;20935;-65
2023/12/29 07:31:52;;;;;;;1.77;1.13;;;9.80;99.90;;;;;;4899442;29;20582;-66
2023/12/29 07:34:18;;;;;;;2.50;1.10;;;9.80;99.90;;;;;;4901063;29;20227;-66
2023/12/29 07:36:44;;;;;;;2.20;1.30;;;9.80;99.90;;;;;;4903780;29;20424;-65
2023/12/29 07:39:10;;;;;;;1.47;1.00;;;9.80;99.90;;;;;;4900642;29;20423;-63
2023/12/29 07:41:40;;;;;;;5.00;1.73;;;9.80;99.90;;;;;;4907572;29;20607;-63
2023/12/29 07:44:06;;;;;;;4.00;1.40;;;9.70;99.90;;;;;;4909632;29;20606;-65
2023/12/29 07:46:32;;;;;;;2.00;1.40;;;9.70;99.90;;;;;;4904212;29;20510;-63
2023/12/29 07:48:58;;;;;;;1.33;1.23;;;9.70;99.90;;;;;;4902874;29;20191;-64
2023/12/29 07:51:23;;;;;;;2.17;1.00;;;9.70;99.90;;;;;;4902322;29;20188;-65
2023/12/29 07:53:49;;;;;;;1.53;1.17;;;9.70;99.90;;;;;;4897250;29;20239;-64
2023/12/29 07:56:14;;;;;;;2.50;1.23;;;9.70;99.90;;;;;;4904791;29;20262;-67
2023/12/29 07:58:40;;;;;;;2.60;1.63;;;9.80;99.90;;;;;;4898447;29;20192;-64
2023/12/29 08:01:06;;;;;;;1.43;1.27;;;9.70;99.90;;;;;;4904378;29;20180;-64
2023/12/29 08:03:31;;;;;;;3.57;1.17;;;9.80;99.90;;;;;;4899304;29;20184;-65
2023/12/29 08:05:57;;;;;;;2.40;1.23;;;9.80;99.90;;;;;;4900194;29;20275;-65
2023/12/29 08:08:22;;;;;;;1.70;1.60;;;9.90;99.90;;;;;;4914543;29;20675;-64
2023/12/29 08:10:48;;;;;;;2.10;1.30;;;9.90;99.90;;;;;;4914669;29;20204;-64
2023/12/29 08:13:13;;;;;;;1.77;1.23;;;9.90;99.90;;;;;;4918638;29;20273;-64
2023/12/29 08:15:39;;;;;;;1.20;1.00;;;10.00;99.90;;;;;;4902081;29;20199;-64
2023/12/29 08:18:05;;;;;;;2.60;1.73;;;10.00;99.90;;;;;;4919876;29;20237;-65
2023/12/29 08:20:31;;;;;;;1.37;1.27;;;10.10;99.90;;;;;;4923193;29;20471;-65
2023/12/29 08:23:02;;;;;;;1.60;1.20;;;10.10;99.90;;;;;;4918428;29;20171;-63
2023/12/29 08:25:31;;;;;;;1.87;1.40;;;10.10;99.90;;;;;;4914157;29;20210;-64
2023/12/29 08:27:57;;;;;;;2.47;1.90;;;10.10;99.90;;;;;;4921803;29;20423;-63
2023/12/29 08:30:22;;;;;;;2.10;1.17;;;10.20;99.90;;;;;;4913182;29;20423;-63
2023/12/29 08:32:48;;;;;;;1.83;1.33;;;10.30;99.90;;;;;;4912129;29;20466;-63
2023/12/29 08:35:13;;;;;;;3.40;1.33;;;10.30;99.90;;;;;;4929924;29;20716;-64
2023/12/29 08:37:39;;;;;;;2.90;1.40;;;10.30;99.90;;;;;;4919051;29;20715;-62
2023/12/29 08:40:06;;;;;;;4.63;1.93;;;10.30;99.90;;;;;;4903186;29;20409;-63
2023/12/29 08:42:31;;;;;;;2.43;1.77;;;10.30;99.90;;;;;;4922199;29;20638;-65
2023/12/29 08:44:59;;;;;;;2.03;1.47;;;10.40;99.90;;;;;;4920737;29;20469;-64
2023/12/29 08:47:25;;;;;;;3.63;1.60;;;10.50;99.90;;;;;;4904981;29;20184;-64
2023/12/29 08:49:51;;;;;;;2.30;2.10;;;10.50;99.90;;;;;;4919641;29;20431;-64
2023/12/29 08:52:16;;;;;;;1.93;1.67;;;10.40;99.90;;;;;;4916736;29;20190;-65
2023/12/29 08:54:42;;;;;;;1.30;1.20;;;10.40;99.90;;;;;;4927535;29;20466;-64
2023/12/29 08:57:07;;;;;;;1.90;1.50;;;10.60;99.90;;;;;;4919951;29;20228;-66
2023/12/29 08:59:33;;;;;;;1.47;1.23;;;10.40;99.90;;;;;;4925668;29;20175;-64
2023/12/29 09:02:00;;;;;;;2.50;1.40;;;10.50;99.90;;;;;;4906638;29;20257;-64
2023/12/29 09:04:25;;;;;;;2.93;1.30;;;10.50;99.90;;;;;;4921592;29;20454;-65
2023/12/29 09:06:51;;;;;;;1.30;1.20;;;10.50;99.90;;;;;;4902839;29;20480;-65
2023/12/29 09:09:17;;;;;;;5.97;2.40;;;10.40;99.90;;;;;;4898130;29;20548;-65
2023/12/29 09:11:42;;;;;;;2.90;1.30;;;10.40;99.90;;;;;;4900872;29;20184;-64
2023/12/29 09:14:08;;;;;;;1.73;1.17;;;10.40;99.90;;;;;;4893126;29;20204;-66
2023/12/29 09:16:35;;;;;;;1.90;1.40;;;10.50;99.90;;;;;;4905049;29;20175;-67
2023/12/29 09:19:01;;;;;;;3.33;1.77;;;10.50;99.90;;;;;;4903802;29;20187;-64
2023/12/29 09:21:27;;;;;;;2.07;1.60;;;10.50;99.90;;;;;;4901940;29;20796;-63
2023/12/29 09:23:53;;;;;;;2.77;1.47;;;10.50;99.90;;;;;;4903919;29;20420;-62
2023/12/29 09:26:18;;;;;;;2.37;1.30;;;10.60;99.90;;;;;;4915727;29;20207;-63
2023/12/29 09:28:44;;;;;;;2.63;1.13;;;10.60;99.90;;;;;;4906024;29;20189;-62
2023/12/29 09:31:10;;;;;;;2.80;1.83;;;10.60;99.90;;;;;;4894802;29;20614;-63
2023/12/29 09:33:36;;;;;;;3.10;1.20;;;10.60;99.90;;;;;;4895745;29;20216;-62
2023/12/29 09:36:02;;;;;;;2.00;1.10;;;10.60;99.90;;;;;;4894694;29;20439;-61
2023/12/29 09:38:28;;;;;;;3.20;1.50;;;10.70;99.90;;;;;;4898200;29;20644;-63
2023/12/29 09:40:57;;;;;;;3.33;1.30;;;10.70;99.90;;;;;;4904436;29;20488;-63
2023/12/29 09:43:23;;;;;;;1.57;1.07;;;10.80;99.90;;;;;;4894587;29;20472;-63
2023/12/29 09:45:51;;;;;;;1.10;1.00;;;10.80;99.90;;;;;;4900136;29;20460;-64
2023/12/29 09:48:19;;;;;;;2.13;1.33;;;10.70;99.90;;;;;;4897601;29;20475;-63
2023/12/29 09:50:46;;;;;;;3.40;1.20;;;10.70;99.90;;;;;;4898944;29;20432;-63
2023/12/29 09:53:13;;;;;;;2.40;1.47;;;10.70;99.90;;;;;;4896792;29;20468;-63
2023/12/29 09:55:40;;;;;;;4.07;1.57;;;10.70;99.90;;;;;;4894762;29;20436;-63
2023/12/29 09:58:08;;;;;;;4.20;1.40;;;10.70;99.90;;;;;;4901586;29;20407;-62
2023/12/29 10:00:34;;;;;;;1.70;1.40;;;10.70;99.90;;;;;;4916506;29;20415;-63
2023/12/29 10:03:00;;;;;;;1.47;1.37;;;10.70;99.90;;;;;;4915299;29;20515;-63
2023/12/29 10:05:26;;;;;;;1.87;1.20;;;10.70;99.90;;;;;;4916501;29;20208;-68
2023/12/29 10:07:53;;;;;;;2.27;1.40;;;10.70;99.90;;;;;;4927689;29;20745;-65
2023/12/29 10:10:23;;;;;;;3.30;1.50;;;10.70;99.90;;;;;;4928858;29;20176;-63
2023/12/29 10:12:49;;;;;;;5.30;1.30;;;10.80;99.90;;;;;;4920760;29;20855;-63
2023/12/29 10:15:29;;;;;;;2.60;1.20;;;10.80;99.90;;;;;;4934141;29;20577;-65
2023/12/29 10:18:12;;;;;;;3.07;1.50;;;10.80;99.90;;;;;;4926465;29;20415;-62
2023/12/29 10:20:59;;;;;;;3.80;1.07;;;10.80;99.90;;;;;;4902233;29;20520;-63
2023/12/29 10:23:34;;;;;;;2.03;1.30;;;10.80;99.90;;;;;;4917163;29;20424;-62
2023/12/29 10:26:00;;;;;;;2.10;1.20;;;10.90;99.90;;;;;;4918674;29;20450;-62
2023/12/29 10:28:26;;;;;;;2.97;1.50;;;10.90;99.90;;;;;;4932210;29;20927;-65
2023/12/29 10:30:51;;;;;;;1.70;1.33;;;11.10;99.90;;;;;;4933326;29;20458;-62
2023/12/29 10:33:29;;;;;;;2.80;1.43;;;11.10;99.90;;;;;;4924842;29;20226;-63
2023/12/29 10:36:07;;;;;;;2.00;1.40;;;11.10;99.90;;;;;;4917814;29;20206;-64
2023/12/29 10:38:33;;;;;;;2.30;1.20;;;11.10;99.90;;;;;;4931691;29;20411;-63
2023/12/29 10:41:11;;;;;;;1.40;1.30;;;11.20;99.90;;;;;;4927336;29;20422;-63
2023/12/29 10:43:37;;;;;;;1.43;1.20;;;11.20;99.90;;;;;;4922433;29;20454;-60
2023/12/29 10:46:09;;;;;;;2.60;1.17;;;11.20;99.90;;;;;;4929619;29;20450;-62
2023/12/29 10:48:35;;;;;;;2.30;1.30;;;11.20;99.90;;;;;;4903805;29;20191;-63
2023/12/29 10:51:03;;;;;;;3.00;1.67;;;11.20;99.90;;;;;;4922653;29;20481;-62
2023/12/29 10:53:31;;;;;;;3.43;1.40;;;11.20;99.90;;;;;;4927275;29;20656;-63
2023/12/29 10:55:58;;;;;;;3.53;1.40;;;11.30;99.90;;;;;;4925772;29;20446;-63
2023/12/29 10:58:29;;;;;;;3.67;1.50;;;11.30;99.90;;;;;;4926061;29;20419;-63
2023/12/29 11:00:59;;;;;;;2.67;1.67;;;11.30;99.90;;;;;;4935319;29;20419;-63
2023/12/29 11:03:25;;;;;;;3.70;2.23;;;11.30;99.90;;;;;;4924431;29;20439;-63
2023/12/29 11:06:00;;;;;;;5.97;1.40;;;11.40;99.90;;;;;;4928238;29;20529;-59
2023/12/29 11:08:26;;;;;;;2.93;1.10;;;11.40;99.90;;;;;;4925112;29;21012;-62
2023/12/29 11:10:53;;;;;;;3.00;1.20;;;11.40;99.90;;;;;;4922454;29;20499;-63
2023/12/29 11:13:19;;;;;;;3.10;1.23;;;11.50;99.90;;;;;;4930398;29;20459;-63
2023/12/29 11:15:45;;;;;;;3.97;1.07;;;11.40;99.90;;;;;;4928699;29;20473;-63
2023/12/29 11:18:18;;;;;;;5.77;1.50;;;11.50;99.90;;;;;;4925412;29;20424;-63
2023/12/29 11:20:46;;;;;;;4.00;1.03;;;11.40;99.90;;;;;;4929908;29;20553;-62
2023/12/29 11:23:15;;;;;;;3.00;1.30;;;11.40;99.90;;;;;;4924704;29;20539;-63
2023/12/29 11:25:44;;;;;;;3.10;1.17;;;11.40;99.90;;;;;;4924124;29;20966;-62
2023/12/29 11:28:13;;;;;;;2.87;1.50;;;11.40;99.90;;;;;;4918912;29;20418;-62
2023/12/29 11:30:39;;;;;;;3.43;1.40;;;11.40;99.90;;;;;;4917051;29;20407;-63
2023/12/29 11:33:25;;;;;;;2.13;1.27;;;11.40;99.90;;;;;;4921321;29;20429;-63
2023/12/29 11:36:16;;;;;;;1.70;1.43;;;11.40;99.90;;;;;;4913072;29;20675;-63
2023/12/29 11:38:54;;;;;;;3.70;1.50;;;11.40;99.90;;;;;;4913621;29;20793;-63
2023/12/29 11:41:42;;;;;;;6.43;1.90;;;11.40;99.90;;;;;;4909718;29;20407;-64
2023/12/29 11:44:08;;;;;;;2.80;1.20;;;11.40;99.90;;;;;;4889163;29;20869;-63
2023/12/29 11:46:38;;;;;;;1.83;1.30;;;11.40;99.90;;;;;;4897361;29;20446;-65
2023/12/29 11:49:04;;;;;;;1.40;1.13;;;11.40;99.90;;;;;;4905480;29;20190;-64
2023/12/29 11:51:34;;;;;;;1.77;1.33;;;11.40;99.90;;;;;;4897443;29;20565;-62
2023/12/29 11:54:02;;;;;;;3.93;1.30;;;11.40;99.90;;;;;;4903569;29;20466;-70
2023/12/29 11:56:41;;;;;;;4.23;2.97;;;11.40;99.90;;;;;;4906342;29;20423;-65
2023/12/29 11:59:18;;;;;;;3.03;2.10;;;11.40;99.90;;;;;;4916776;29;20499;-65
2023/12/29 12:01:48;;;;;;;3.07;1.50;;;11.40;99.90;;;;;;4907584;29;20416;-64
2023/12/29 12:04:42;;;;;;;3.63;1.40;;;11.40;99.90;;;;;;4917676;29;20424;-67
2023/12/29 12:07:37;;;;;;;15.90;6.50;;;11.40;99.90;;;;;;4912839;29;20514;-65
2023/12/29 12:10:33;;;;;;;2.53;2.10;;;11.40;99.90;;;;;;4921143;29;20420;-62
2023/12/29 12:12:59;;;;;;;6.93;1.73;;;11.30;99.90;;;;;;4914318;29;20443;-63
2023/12/29 12:15:28;;;;;;;3.37;1.90;;;11.30;99.90;;;;;;4918504;29;20444;-62
2023/12/29 12:17:54;;;;;;;2.20;1.30;;;11.30;99.90;;;;;;4907715;29;20428;-64
2023/12/29 12:20:20;;;;;;;2.07;1.27;;;11.30;99.90;;;;;;4916214;29;20423;-66
2023/12/29 12:22:50;;;;;;;3.33;1.20;;;11.30;99.90;;;;;;4920074;29;20925;-64
2023/12/29 12:25:16;;;;;;;2.97;1.73;;;11.30;99.90;;;;;;4912987;29;20553;-63
2023/12/29 12:27:42;;;;;;;2.80;1.67;;;11.30;99.90;;;;;;4909790;29;20498;-63
2023/12/29 12:30:10;;;;;;;3.97;1.30;;;11.30;99.90;;;;;;4929484;29;20974;-63
2023/12/29 12:32:35;;;;;;;7.87;2.00;;;11.20;99.90;;;;;;4923192;29;20908;-62
2023/12/29 12:35:01;;;;;;;4.40;1.40;;;11.10;99.90;;;;;;4921508;29;20599;-62
2023/12/29 12:37:28;;;;;;;7.10;1.43;;;11.00;99.90;;;;;;4918803;29;20243;-61
2023/12/29 12:39:54;;;;;;;5.10;1.70;;;11.00;99.90;;;;;;4913818;29;20531;-63
2023/12/29 12:42:21;;;;;;;3.30;1.37;;;10.80;99.90;;;;;;4924784;29;20450;-63
2023/12/29 12:45:11;;;;;;;4.23;1.30;;;10.80;99.90;;;;;;4926204;29;20483;-64
2023/12/29 12:47:45;;;;;;;1.90;1.50;;;10.70;99.90;;;;;;4924373;29;20426;-62
2023/12/29 12:50:14;;;;;;;2.30;1.10;;;10.50;99.90;;;;;;4925834;29;20789;-63
2023/12/29 12:52:40;;;;;;;2.30;1.10;;;10.50;99.90;;;;;;4921820;29;20992;-63
2023/12/29 12:55:10;;;;;;;2.10;1.23;;;10.40;99.90;;;;;;4908308;29;20588;-63